createdAt,value
2022-11-28T00:00:57.433Z,14.07
2022-11-28T00:04:00.621Z,15.00
2022-11-28T00:07:03.673Z,14.87
2022-11-28T00:10:07.932Z,15.30
2022-11-28T00:13:10.886Z,13.32
2022-11-28T00:16:21.680Z,12.90
2022-11-28T00:19:24.514Z,14.45
2022-11-28T00:22:29.382Z,14.52
2022-11-28T00:25:32.301Z,15.32
2022-11-28T00:28:35.347Z,12.88
2022-11-28T00:31:42.710Z,14.50
2022-11-28T00:34:48.938Z,13.48
2022-11-28T00:37:51.568Z,12.90
2022-11-28T00:41:28.723Z,14.35
2022-11-28T00:44:31.487Z,12.70
2022-11-28T00:47:34.510Z,12.73
2022-11-28T00:50:37.288Z,12.40
2022-11-28T00:53:42.637Z,12.10
2022-11-28T00:56:45.330Z,12.05
2022-11-28T00:59:48.264Z,14.10
2022-11-28T01:02:51.049Z,12.52
2022-11-28T01:05:54.107Z,12.55
2022-11-28T01:08:59.229Z,11.40
2022-11-28T01:12:02.308Z,14.02
2022-11-28T01:15:08.157Z,12.25
2022-11-28T01:18:11.217Z,11.32
2022-11-28T01:21:14.166Z,12.00
2022-11-28T01:24:19.150Z,11.10
2022-11-28T01:27:22.216Z,12.82
2022-11-28T01:30:28.738Z,10.93
2022-11-28T01:33:31.808Z,11.45
2022-11-28T01:36:34.970Z,12.90
2022-11-28T01:39:38.407Z,11.10
2022-11-28T01:42:43.237Z,10.80
2022-11-28T01:45:46.034Z,11.35
2022-11-28T01:48:50.935Z,11.57
2022-11-28T01:51:59.807Z,11.88
2022-11-28T01:55:03.675Z,12.68
2022-11-28T01:58:07.001Z,13.45
2022-11-28T02:01:11.186Z,12.15
2022-11-28T02:04:14.727Z,13.62
2022-11-28T02:07:18.061Z,12.13
2022-11-28T02:11:06.442Z,13.77
2022-11-28T02:14:27.877Z,13.73
2022-11-28T02:17:49.916Z,12.73
2022-11-28T02:21:06.814Z,11.93
2022-11-28T02:24:54.430Z,15.20
2022-11-28T02:28:33.941Z,12.73
2022-11-28T02:32:15.404Z,12.40
2022-11-28T02:35:21.258Z,12.45
2022-11-28T02:38:50.357Z,12.50
2022-11-28T02:42:21.360Z,12.20
2022-11-28T02:45:32.087Z,11.30
2022-11-28T02:48:50.930Z,13.00
2022-11-28T02:51:58.299Z,11.82
2022-11-28T02:55:02.026Z,13.18
2022-11-28T02:58:05.161Z,12.45
2022-11-28T03:01:25.745Z,12.95
2022-11-28T03:04:54.905Z,11.38
2022-11-28T03:08:19.614Z,12.13
2022-11-28T03:11:44.619Z,11.55
2022-11-28T03:15:00.086Z,10.98
2022-11-28T03:18:14.375Z,12.10
2022-11-28T03:21:46.802Z,14.13
2022-11-28T03:25:17.920Z,11.90
2022-11-28T03:28:39.310Z,11.35
2022-11-28T03:31:53.968Z,12.68
2022-11-28T03:35:03.294Z,11.02
2022-11-28T03:38:32.545Z,12.70
2022-11-28T03:41:42.792Z,12.45
2022-11-28T03:44:52.809Z,13.80
2022-11-28T03:48:07.620Z,11.77
2022-11-28T03:51:33.063Z,12.43
2022-11-28T03:54:42.807Z,12.48
2022-11-28T03:57:50.342Z,11.70
2022-11-28T04:00:56.914Z,14.48
2022-11-28T04:04:20.003Z,12.50
2022-11-28T04:07:44.223Z,11.52
2022-11-28T04:11:16.029Z,11.10
2022-11-28T04:14:42.126Z,10.55
2022-11-28T04:18:29.054Z,10.52
2022-11-28T04:21:45.131Z,10.45
2022-11-28T04:24:58.711Z,11.73
2022-11-28T04:28:08.397Z,11.43
2022-11-28T04:31:12.636Z,10.20
2022-11-28T04:34:19.097Z,9.38
2022-11-28T04:37:25.461Z,9.48
2022-11-28T04:40:32.076Z,9.30
2022-11-28T04:43:41.403Z,8.90
2022-11-28T04:46:49.349Z,8.80
2022-11-28T04:49:53.722Z,8.77
2022-11-28T04:53:08.597Z,6.37
2022-11-28T04:56:22.588Z,9.52
2022-11-28T04:59:27.867Z,6.82
2022-11-28T05:02:32.270Z,7.57
2022-11-28T05:05:44.218Z,7.82
2022-11-28T05:08:47.198Z,7.35
2022-11-28T05:11:49.914Z,8.75
2022-11-28T05:14:52.856Z,7.97
2022-11-28T05:17:55.477Z,8.20
2022-11-28T05:20:59.407Z,8.30
2022-11-28T05:24:02.077Z,6.68
2022-11-28T05:27:05.193Z,9.68
2022-11-28T05:30:10.111Z,7.93
2022-11-28T05:33:13.493Z,7.50
2022-11-28T05:36:17.089Z,8.52
2022-11-28T05:39:19.997Z,8.10
2022-11-28T05:42:22.794Z,7.43
2022-11-28T05:45:25.815Z,7.60
2022-11-28T05:48:28.489Z,7.82
2022-11-28T05:51:31.609Z,7.72
2022-11-28T05:54:34.272Z,6.78
2022-11-28T05:57:37.189Z,8.65
2022-11-28T06:00:40.324Z,10.93
2022-11-28T06:03:46.591Z,8.00
2022-11-28T06:06:51.058Z,8.35
2022-11-28T06:09:54.636Z,8.18
2022-11-28T06:12:57.324Z,7.60
2022-11-28T06:16:00.464Z,7.12
2022-11-28T06:19:05.874Z,7.90
2022-11-28T06:22:10.454Z,6.20
2022-11-28T06:25:13.303Z,5.75
2022-11-28T06:31:39.350Z,8.23
2022-11-28T06:34:42.564Z,6.53
2022-11-28T06:37:45.333Z,7.05
2022-11-28T06:40:49.076Z,7.70
2022-11-28T06:43:51.769Z,7.82
2022-11-28T06:46:57.862Z,7.40
2022-11-28T06:50:03.634Z,7.30
2022-11-28T06:53:06.880Z,8.20
2022-11-28T06:56:14.172Z,8.77
2022-11-28T06:59:17.278Z,8.32
2022-11-28T07:02:20.162Z,9.10
2022-11-28T07:05:27.588Z,9.52
2022-11-28T07:08:32.002Z,9.13
2022-11-28T07:11:34.955Z,9.13
2022-11-28T07:14:38.304Z,10.30
2022-11-28T07:17:41.495Z,9.30
2022-11-28T07:20:50.172Z,9.23
2022-11-28T07:23:53.525Z,8.07
2022-11-28T07:26:56.717Z,10.40
2022-11-28T07:30:00.407Z,8.75
2022-11-28T07:33:03.113Z,10.90
2022-11-28T07:36:10.401Z,9.35
2022-11-28T07:39:16.230Z,10.18
2022-11-28T07:42:19.501Z,9.65
2022-11-28T07:45:37.061Z,9.25
2022-11-28T07:48:49.523Z,8.95
2022-11-28T07:51:52.218Z,8.05
2022-11-28T07:54:55.490Z,9.52
2022-11-28T08:27:27.043Z,8.98
2022-11-28T08:30:31.938Z,15.10
2022-11-28T08:33:34.707Z,11.55
2022-11-28T08:36:37.895Z,11.80
2022-11-28T08:39:41.012Z,12.27
2022-11-28T08:42:44.160Z,12.70
2022-11-28T08:45:46.821Z,10.32
2022-11-28T08:48:52.183Z,10.25
2022-11-28T08:51:55.053Z,10.75
2022-11-28T08:54:58.009Z,9.40
2022-11-28T08:58:00.668Z,9.18
2022-11-28T09:01:04.609Z,9.77
2022-11-28T09:04:07.789Z,12.98
2022-11-28T09:07:10.727Z,10.32
2022-11-28T09:10:13.378Z,12.60
2022-11-28T09:13:19.515Z,10.63
2022-11-28T09:16:22.425Z,11.02
2022-11-28T09:19:25.443Z,10.23
2022-11-28T09:22:29.629Z,9.05
2022-11-28T09:25:35.417Z,9.82
2022-11-28T09:28:38.168Z,9.95
2022-11-28T09:31:46.981Z,9.68
2022-11-28T09:34:51.230Z,9.60
2022-11-28T09:37:54.031Z,9.48
2022-11-28T09:40:56.625Z,9.85
2022-11-28T09:44:08.220Z,9.35
2022-11-28T09:47:23.184Z,9.02
2022-11-28T09:50:33.103Z,8.30
2022-11-28T09:54:09.241Z,9.93
2022-11-28T09:57:21.374Z,9.55
2022-11-28T10:00:59.468Z,8.93
2022-11-28T10:04:24.293Z,10.75
2022-11-28T10:07:39.040Z,10.32
2022-11-28T10:11:31.337Z,10.60
2022-11-28T10:14:49.476Z,9.90
2022-11-28T10:18:02.736Z,8.57
2022-11-28T10:21:25.472Z,10.75
2022-11-28T10:24:38.632Z,10.60
2022-11-28T11:30:45.955Z,11.50
2022-11-28T11:34:07.587Z,11.80
2022-11-28T11:37:38.004Z,12.00
2022-11-28T11:44:38.013Z,32.85
2022-11-28T11:47:43.481Z,11.48
2022-11-28T11:50:54.781Z,11.30
2022-11-28T11:54:13.808Z,10.93
2022-11-28T11:57:32.445Z,11.15
2022-11-28T12:00:40.291Z,11.52
2022-11-28T12:04:17.736Z,11.12
2022-11-28T12:07:33.717Z,9.13
2022-11-28T12:10:48.410Z,9.55
2022-11-28T12:13:51.875Z,9.82
2022-11-28T12:17:40.467Z,11.18
2022-11-28T12:20:55.305Z,11.88
2022-11-28T12:24:15.412Z,10.75
2022-11-28T12:27:47.734Z,11.18
2022-11-28T12:30:53.957Z,10.98
2022-11-28T12:34:21.600Z,10.55
2022-11-28T12:37:55.162Z,11.25
2022-11-28T12:41:16.853Z,11.77
2022-11-28T12:44:25.810Z,11.68
2022-11-28T12:47:49.872Z,12.40
2022-11-28T12:51:02.707Z,14.10
2022-11-28T12:55:13.781Z,12.82
2022-11-28T12:58:28.595Z,9.95
2022-11-28T13:01:31.597Z,11.35
2022-11-28T13:04:58.645Z,12.63
2022-11-28T13:08:13.455Z,9.40
2022-11-28T13:11:47.946Z,12.82
2022-11-28T13:15:08.959Z,5.43
2022-11-28T13:18:23.778Z,7.43
2022-11-28T13:22:15.234Z,14.60
2022-11-28T13:25:36.422Z,9.50
2022-11-28T13:28:55.461Z,12.05
2022-11-28T13:35:44.710Z,14.85
2022-11-28T13:39:12.760Z,10.35
2022-11-28T13:45:55.764Z,14.55
2022-11-28T13:49:23.731Z,13.65
2022-11-28T13:52:29.261Z,12.93
2022-11-28T13:55:46.985Z,11.05
2022-11-28T13:58:58.010Z,11.63
2022-11-28T14:02:03.471Z,14.23
2022-11-28T14:05:26.398Z,13.10
2022-11-28T14:08:50.144Z,14.25
2022-11-28T14:12:05.081Z,9.13
2022-11-28T14:15:32.226Z,11.32
2022-11-28T14:18:58.043Z,9.07
2022-11-28T14:22:19.365Z,14.15
2022-11-28T14:25:32.747Z,13.25
2022-11-28T14:28:38.276Z,11.50
2022-11-28T14:32:06.655Z,12.98
2022-11-28T14:35:37.502Z,15.63
2022-11-28T14:38:42.044Z,13.57
2022-11-28T14:42:06.675Z,13.13
2022-11-28T14:45:42.222Z,12.02
2022-11-28T14:49:00.409Z,13.15
2022-11-28T14:55:42.707Z,15.10
2022-11-28T14:58:48.429Z,12.37
2022-11-28T15:02:11.273Z,14.43
2022-11-28T15:05:20.102Z,14.40
2022-11-28T15:08:33.112Z,13.00
2022-11-28T15:11:41.434Z,13.73
2022-11-28T15:14:51.224Z,15.73
2022-11-28T15:17:55.040Z,17.65
2022-11-28T15:21:02.373Z,17.27
2022-11-28T15:24:20.461Z,16.55
2022-11-28T15:27:27.585Z,13.13
2022-11-28T15:30:31.531Z,14.73
2022-11-28T15:33:34.359Z,15.18
2022-11-28T15:36:39.483Z,15.88
2022-11-28T15:39:45.163Z,15.18
2022-11-28T15:42:49.774Z,15.45
2022-11-28T15:45:58.623Z,17.27
2022-11-28T15:49:01.820Z,12.48
2022-11-28T15:52:05.210Z,14.07
2022-11-28T15:55:18.574Z,15.57
2022-11-28T15:58:23.592Z,15.35
2022-11-28T16:01:28.456Z,17.90
2022-11-28T16:04:32.471Z,13.65
2022-11-28T16:07:40.953Z,12.48
2022-11-28T16:10:44.294Z,14.60
2022-11-28T16:13:48.016Z,15.45
2022-11-28T16:16:51.266Z,13.68
2022-11-28T16:19:55.823Z,14.00
2022-11-28T16:23:02.772Z,15.35
2022-11-28T16:26:23.861Z,14.98
2022-11-28T16:29:36.804Z,16.50
2022-11-28T16:32:40.541Z,15.52
2022-11-28T16:35:43.669Z,15.38
2022-11-28T16:38:48.378Z,13.88
2022-11-28T16:42:04.854Z,15.05
2022-11-28T16:45:17.627Z,12.07
2022-11-28T16:48:21.762Z,15.27
2022-11-28T16:51:34.140Z,13.60
2022-11-28T16:54:37.190Z,15.13
2022-11-28T16:57:59.156Z,14.27
2022-11-28T17:01:02.748Z,12.75
2022-11-28T17:04:08.588Z,15.75
2022-11-28T17:07:14.873Z,13.88
2022-11-28T17:10:17.725Z,14.55
2022-11-28T17:13:22.073Z,15.93
2022-11-28T17:16:26.502Z,16.17
2022-11-28T17:19:29.685Z,17.10
2022-11-28T17:22:41.534Z,15.85
2022-11-28T17:25:44.481Z,11.98
2022-11-28T17:28:47.293Z,15.23
2022-11-28T17:31:50.524Z,13.95
2022-11-28T17:34:53.240Z,12.75
2022-11-28T17:37:56.114Z,14.52
2022-11-28T17:40:59.939Z,14.65
2022-11-28T17:44:03.703Z,14.90
2022-11-28T17:47:06.652Z,14.55
2022-11-28T17:50:11.359Z,16.87
2022-11-28T17:53:16.979Z,15.82
2022-11-28T17:56:20.078Z,15.07
2022-11-28T17:59:24.535Z,16.92
2022-11-28T18:02:27.759Z,16.48
2022-11-28T18:05:30.791Z,16.83
2022-11-28T18:08:33.655Z,17.27
2022-11-28T18:11:36.981Z,16.87
2022-11-28T18:14:41.187Z,17.23
2022-11-28T18:17:44.298Z,14.43
2022-11-28T18:20:47.341Z,13.88
2022-11-28T18:23:50.699Z,13.30
2022-11-28T18:26:53.881Z,14.10
2022-11-28T18:29:56.960Z,14.63
2022-11-28T18:32:59.603Z,15.52
2022-11-28T18:36:13.763Z,15.30
2022-11-28T18:39:17.173Z,15.50
2022-11-28T18:42:20.807Z,13.55
2022-11-28T18:45:23.729Z,11.98
2022-11-28T18:48:27.619Z,11.80
2022-11-28T18:51:33.356Z,11.85
2022-11-28T18:54:38.508Z,9.77
2022-11-28T18:57:41.615Z,10.35
2022-11-28T19:00:45.101Z,10.02
2022-11-28T19:03:58.478Z,10.77
2022-11-28T19:07:02.591Z,14.77
2022-11-28T19:10:06.771Z,11.60
2022-11-28T19:13:09.962Z,13.62
2022-11-28T19:16:15.918Z,13.95
2022-11-28T19:19:19.266Z,13.82
2022-11-28T19:22:23.097Z,9.82
2022-11-28T19:25:27.697Z,11.73
2022-11-28T19:28:30.918Z,11.38
2022-11-28T19:31:35.583Z,8.98
2022-11-28T19:34:39.537Z,11.25
2022-11-28T19:37:42.897Z,8.35
2022-11-28T19:40:45.717Z,11.73
2022-11-28T19:43:49.271Z,12.95
2022-11-28T19:46:52.962Z,9.50
2022-11-28T19:49:56.057Z,14.07
2022-11-28T19:52:58.811Z,9.75
2022-11-28T19:56:07.619Z,14.73
2022-11-28T19:59:13.188Z,16.37
2022-11-28T20:02:30.515Z,17.35
2022-11-28T20:05:36.688Z,16.87
2022-11-28T20:08:39.794Z,9.77
2022-11-28T20:15:18.519Z,16.45
2022-11-28T20:18:21.621Z,16.67
2022-11-28T20:21:30.968Z,18.42
2022-11-28T20:24:34.112Z,8.98
2022-11-28T20:27:37.093Z,16.02
2022-11-28T20:30:40.449Z,18.08
2022-11-28T20:33:43.944Z,17.62
2022-11-28T20:36:51.786Z,11.55
2022-11-28T20:39:54.551Z,16.45
2022-11-28T20:42:57.591Z,18.90
2022-11-28T20:46:08.220Z,9.48
2022-11-28T20:49:12.615Z,18.85
2022-11-28T20:52:15.337Z,15.73
2022-11-28T20:55:18.737Z,19.48
2022-11-28T20:58:21.529Z,21.65
2022-11-28T21:01:36.109Z,16.90
2022-11-28T21:04:38.952Z,19.02
2022-11-28T21:07:47.696Z,21.55
2022-11-28T21:11:55.698Z,16.95
2022-11-28T21:15:47.544Z,17.50
2022-11-28T21:19:25.208Z,20.53
2022-11-28T21:22:49.132Z,17.65
2022-11-28T21:25:53.873Z,19.73
2022-11-28T21:29:03.837Z,19.73
2022-11-28T21:32:08.438Z,14.48
2022-11-28T21:35:16.223Z,20.80
2022-11-28T21:38:43.100Z,10.13
2022-11-28T21:42:20.339Z,12.90
2022-11-28T21:46:19.464Z,14.25
2022-11-28T21:49:22.506Z,13.45
2022-11-28T21:52:28.770Z,15.90
2022-11-28T21:55:31.450Z,15.43
2022-11-28T21:58:40.220Z,19.70
2022-11-28T22:01:43.181Z,14.35
2022-11-28T22:04:46.492Z,15.05
2022-11-28T22:07:49.581Z,22.13
2022-11-28T22:10:52.852Z,16.25
2022-11-28T22:13:55.625Z,17.50
2022-11-28T22:16:59.084Z,14.30
2022-11-28T22:20:02.025Z,14.82
2022-11-28T22:23:05.212Z,18.60
2022-11-28T22:26:09.328Z,23.10
2022-11-28T22:29:13.766Z,20.52
2022-11-28T22:32:17.210Z,16.55
2022-11-28T22:35:20.730Z,20.58
2022-11-28T22:38:23.806Z,18.95
2022-11-28T22:41:29.264Z,17.35
2022-11-28T22:44:33.914Z,22.02
2022-11-28T22:47:37.578Z,21.05
2022-11-28T22:50:40.682Z,18.42
2022-11-28T22:53:44.494Z,15.73
2022-11-28T22:56:47.282Z,19.65
2022-11-28T22:59:50.321Z,18.55
2022-11-28T23:02:53.083Z,14.10
2022-11-28T23:05:56.255Z,19.95
2022-11-28T23:09:02.915Z,18.80
2022-11-28T23:12:06.109Z,21.25
2022-11-28T23:15:10.205Z,17.05
2022-11-28T23:18:13.152Z,20.00
2022-11-28T23:21:17.219Z,16.90
2022-11-28T23:24:22.622Z,18.17
2022-11-28T23:27:26.054Z,20.27
2022-11-28T23:30:29.373Z,15.93
2022-11-28T23:33:32.522Z,20.88
2022-11-28T23:36:42.748Z,18.02
